sensor_id;sensor_type;location;lat;lon;timestamp;P1;durP1;ratioP1;P2;durP2;ratioP2
3769;SDS011;1900;48.890;9.190;2023-05-29T00:01:20;7.17;;;4.70;;
3769;SDS011;1900;48.890;9.190;2023-05-29T00:03:49;10.67;;;5.33;;
3769;SDS011;1900;48.890;9.190;2023-05-29T00:06:15;8.83;;;5.20;;
3769;SDS011;1900;48.890;9.190;2023-05-29T00:08:44;13.30;;;5.43;;
3769;SDS011;1900;48.890;9.190;2023-05-29T00:11:10;8.23;;;4.43;;
3769;SDS011;1900;48.890;9.190;2023-05-29T00:13:39;6.53;;;4.53;;
3769;SDS011;1900;48.890;9.190;2023-05-29T00:16:05;6.17;;;3.83;;
3769;SDS011;1900;48.890;9.190;2023-05-29T00:18:31;7.83;;;5.27;;
3769;SDS011;1900;48.890;9.190;2023-05-29T00:20:57;10.77;;;5.70;;
3769;SDS011;1900;48.890;9.190;2023-05-29T00:23:25;6.37;;;4.57;;
3769;SDS011;1900;48.890;9.190;2023-05-29T00:25:51;7.73;;;5.00;;
3769;SDS011;1900;48.890;9.190;2023-05-29T00:28:16;8.80;;;5.30;;
3769;SDS011;1900;48.890;9.190;2023-05-29T00:30:42;7.23;;;4.73;;
3769;SDS011;1900;48.890;9.190;2023-05-29T00:33:08;7.53;;;5.67;;
3769;SDS011;1900;48.890;9.190;2023-05-29T00:35:34;7.53;;;5.57;;
3769;SDS011;1900;48.890;9.190;2023-05-29T00:38:00;10.07;;;5.00;;
3769;SDS011;1900;48.890;9.190;2023-05-29T00:40:25;11.57;;;5.67;;
3769;SDS011;1900;48.890;9.190;2023-05-29T00:42:51;8.10;;;5.77;;
3769;SDS011;1900;48.890;9.190;2023-05-29T00:45:17;15.47;;;5.93;;
3769;SDS011;1900;48.890;9.190;2023-05-29T00:47:43;8.70;;;5.30;;
3769;SDS011;1900;48.890;9.190;2023-05-29T00:50:10;8.80;;;5.33;;
3769;SDS011;1900;48.890;9.190;2023-05-29T00:52:39;7.00;;;5.20;;
3769;SDS011;1900;48.890;9.190;2023-05-29T00:55:06;10.60;;;6.20;;
3769;SDS011;1900;48.890;9.190;2023-05-29T00:57:35;13.87;;;5.53;;
3769;SDS011;1900;48.890;9.190;2023-05-29T01:00:04;12.70;;;6.10;;
3769;SDS011;1900;48.890;9.190;2023-05-29T01:02:36;10.10;;;5.70;;
3769;SDS011;1900;48.890;9.190;2023-05-29T01:05:05;9.90;;;5.83;;
3769;SDS011;1900;48.890;9.190;2023-05-29T01:07:32;16.43;;;6.30;;
3769;SDS011;1900;48.890;9.190;2023-05-29T01:09:58;11.80;;;6.17;;
3769;SDS011;1900;48.890;9.190;2023-05-29T01:23:50;11.87;;;5.83;;
3769;SDS011;1900;48.890;9.190;2023-05-29T01:28:48;12.20;;;6.17;;
3769;SDS011;1900;48.890;9.190;2023-05-29T01:31:19;10.93;;;5.97;;
3769;SDS011;1900;48.890;9.190;2023-05-29T01:33:51;12.23;;;5.90;;
3769;SDS011;1900;48.890;9.190;2023-05-29T01:36:21;10.63;;;5.83;;
3769;SDS011;1900;48.890;9.190;2023-05-29T01:38:48;8.03;;;5.53;;
3769;SDS011;1900;48.890;9.190;2023-05-29T01:41:16;12.70;;;5.50;;
3769;SDS011;1900;48.890;9.190;2023-05-29T01:43:43;8.80;;;5.67;;
3769;SDS011;1900;48.890;9.190;2023-05-29T01:46:11;9.20;;;6.20;;
3769;SDS011;1900;48.890;9.190;2023-05-29T01:48:41;7.60;;;5.70;;
3769;SDS011;1900;48.890;9.190;2023-05-29T01:51:07;11.80;;;5.83;;
3769;SDS011;1900;48.890;9.190;2023-05-29T01:53:33;8.87;;;5.57;;
3769;SDS011;1900;48.890;9.190;2023-05-29T01:55:59;8.30;;;5.50;;
3769;SDS011;1900;48.890;9.190;2023-05-29T01:58:25;10.07;;;5.80;;
3769;SDS011;1900;48.890;9.190;2023-05-29T02:00:53;13.37;;;5.23;;
3769;SDS011;1900;48.890;9.190;2023-05-29T02:03:20;8.80;;;6.43;;
3769;SDS011;1900;48.890;9.190;2023-05-29T02:05:46;12.07;;;6.20;;
3769;SDS011;1900;48.890;9.190;2023-05-29T02:08:12;9.53;;;5.33;;
3769;SDS011;1900;48.890;9.190;2023-05-29T02:10:37;10.90;;;5.70;;
3769;SDS011;1900;48.890;9.190;2023-05-29T02:13:03;10.27;;;6.70;;
3769;SDS011;1900;48.890;9.190;2023-05-29T02:15:28;9.40;;;5.83;;
3769;SDS011;1900;48.890;9.190;2023-05-29T02:17:55;8.70;;;5.00;;
3769;SDS011;1900;48.890;9.190;2023-05-29T02:20:24;8.40;;;5.30;;
3769;SDS011;1900;48.890;9.190;2023-05-29T02:22:49;13.53;;;5.27;;
3769;SDS011;1900;48.890;9.190;2023-05-29T02:25:15;10.27;;;5.50;;
3769;SDS011;1900;48.890;9.190;2023-05-29T02:27:41;10.23;;;6.80;;
3769;SDS011;1900;48.890;9.190;2023-05-29T02:30:06;10.70;;;5.43;;
3769;SDS011;1900;48.890;9.190;2023-05-29T02:32:33;15.17;;;6.20;;
3769;SDS011;1900;48.890;9.190;2023-05-29T02:34:59;7.30;;;5.10;;
3769;SDS011;1900;48.890;9.190;2023-05-29T02:37:27;9.53;;;5.93;;
3769;SDS011;1900;48.890;9.190;2023-05-29T02:39:53;10.90;;;5.27;;
3769;SDS011;1900;48.890;9.190;2023-05-29T02:42:24;9.33;;;5.20;;
3769;SDS011;1900;48.890;9.190;2023-05-29T02:44:49;13.50;;;5.53;;
3769;SDS011;1900;48.890;9.190;2023-05-29T02:47:16;9.50;;;5.67;;
3769;SDS011;1900;48.890;9.190;2023-05-29T02:49:45;9.83;;;5.60;;
3769;SDS011;1900;48.890;9.190;2023-05-29T02:52:10;8.33;;;5.70;;
3769;SDS011;1900;48.890;9.190;2023-05-29T02:54:36;7.53;;;5.30;;
3769;SDS011;1900;48.890;9.190;2023-05-29T02:57:05;8.13;;;5.53;;
3769;SDS011;1900;48.890;9.190;2023-05-29T02:59:31;10.33;;;6.03;;
3769;SDS011;1900;48.890;9.190;2023-05-29T03:01:57;7.47;;;5.33;;
3769;SDS011;1900;48.890;9.190;2023-05-29T03:04:23;8.70;;;6.17;;
3769;SDS011;1900;48.890;9.190;2023-05-29T03:06:48;15.50;;;4.87;;
3769;SDS011;1900;48.890;9.190;2023-05-29T03:09:14;10.67;;;5.23;;
3769;SDS011;1900;48.890;9.190;2023-05-29T03:11:41;11.93;;;5.53;;
3769;SDS011;1900;48.890;9.190;2023-05-29T03:14:08;8.90;;;4.80;;
3769;SDS011;1900;48.890;9.190;2023-05-29T03:16:36;8.93;;;5.30;;
3769;SDS011;1900;48.890;9.190;2023-05-29T03:19:03;9.23;;;5.83;;
3769;SDS011;1900;48.890;9.190;2023-05-29T03:21:32;13.00;;;6.30;;
3769;SDS011;1900;48.890;9.190;2023-05-29T03:24:01;8.40;;;5.20;;
3769;SDS011;1900;48.890;9.190;2023-05-29T03:26:32;11.30;;;5.53;;
3769;SDS011;1900;48.890;9.190;2023-05-29T03:29:01;6.97;;;4.80;;
3769;SDS011;1900;48.890;9.190;2023-05-29T03:31:28;6.40;;;5.10;;
3769;SDS011;1900;48.890;9.190;2023-05-29T03:33:53;9.10;;;5.07;;
3769;SDS011;1900;48.890;9.190;2023-05-29T03:36:38;12.07;;;4.80;;
3769;SDS011;1900;48.890;9.190;2023-05-29T03:39:04;9.67;;;5.97;;
3769;SDS011;1900;48.890;9.190;2023-05-29T03:41:30;11.03;;;5.37;;
3769;SDS011;1900;48.890;9.190;2023-05-29T03:43:58;11.23;;;5.67;;
3769;SDS011;1900;48.890;9.190;2023-05-29T03:46:25;12.63;;;5.50;;
3769;SDS011;1900;48.890;9.190;2023-05-29T03:48:55;8.40;;;5.37;;
3769;SDS011;1900;48.890;9.190;2023-05-29T03:51:20;6.53;;;4.50;;
3769;SDS011;1900;48.890;9.190;2023-05-29T03:53:52;8.03;;;5.10;;
3769;SDS011;1900;48.890;9.190;2023-05-29T03:56:17;8.80;;;5.20;;
3769;SDS011;1900;48.890;9.190;2023-05-29T03:58:43;11.60;;;5.50;;
3769;SDS011;1900;48.890;9.190;2023-05-29T04:01:09;11.73;;;5.57;;
3769;SDS011;1900;48.890;9.190;2023-05-29T04:03:35;7.40;;;5.27;;
3769;SDS011;1900;48.890;9.190;2023-05-29T04:06:01;10.93;;;5.60;;
3769;SDS011;1900;48.890;9.190;2023-05-29T04:08:27;8.30;;;4.83;;
3769;SDS011;1900;48.890;9.190;2023-05-29T04:10:53;13.33;;;5.83;;
3769;SDS011;1900;48.890;9.190;2023-05-29T04:13:20;8.10;;;5.03;;
3769;SDS011;1900;48.890;9.190;2023-05-29T04:15:46;9.43;;;5.37;;
3769;SDS011;1900;48.890;9.190;2023-05-29T04:18:12;7.80;;;5.00;;
3769;SDS011;1900;48.890;9.190;2023-05-29T04:20:37;9.27;;;5.97;;
3769;SDS011;1900;48.890;9.190;2023-05-29T04:23:03;10.83;;;6.27;;
3769;SDS011;1900;48.890;9.190;2023-05-29T04:25:32;10.33;;;5.13;;
3769;SDS011;1900;48.890;9.190;2023-05-29T04:28:00;7.37;;;4.57;;
3769;SDS011;1900;48.890;9.190;2023-05-29T04:30:27;11.00;;;5.70;;
3769;SDS011;1900;48.890;9.190;2023-05-29T04:32:54;8.97;;;5.57;;
3769;SDS011;1900;48.890;9.190;2023-05-29T04:35:25;7.27;;;5.20;;
3769;SDS011;1900;48.890;9.190;2023-05-29T04:37:57;13.80;;;4.73;;
3769;SDS011;1900;48.890;9.190;2023-05-29T04:40:25;10.83;;;5.40;;
3769;SDS011;1900;48.890;9.190;2023-05-29T04:42:54;8.90;;;4.83;;
3769;SDS011;1900;48.890;9.190;2023-05-29T04:45:21;7.73;;;4.73;;
3769;SDS011;1900;48.890;9.190;2023-05-29T04:47:51;7.40;;;4.43;;
3769;SDS011;1900;48.890;9.190;2023-05-29T04:50:19;10.43;;;4.87;;
3769;SDS011;1900;48.890;9.190;2023-05-29T04:52:48;10.70;;;5.43;;
3769;SDS011;1900;48.890;9.190;2023-05-29T04:55:14;9.47;;;5.70;;
3769;SDS011;1900;48.890;9.190;2023-05-29T04:57:41;7.20;;;4.87;;
3769;SDS011;1900;48.890;9.190;2023-05-29T05:00:09;7.03;;;4.57;;
3769;SDS011;1900;48.890;9.190;2023-05-29T05:02:42;8.73;;;5.43;;
3769;SDS011;1900;48.890;9.190;2023-05-29T05:05:10;5.87;;;4.63;;
3769;SDS011;1900;48.890;9.190;2023-05-29T05:07:36;11.23;;;5.10;;
3769;SDS011;1900;48.890;9.190;2023-05-29T05:10:02;9.77;;;4.93;;
3769;SDS011;1900;48.890;9.190;2023-05-29T05:12:30;8.33;;;5.03;;
3769;SDS011;1900;48.890;9.190;2023-05-29T05:14:55;12.60;;;5.47;;
3769;SDS011;1900;48.890;9.190;2023-05-29T05:17:21;9.77;;;4.93;;
3769;SDS011;1900;48.890;9.190;2023-05-29T05:19:47;12.73;;;4.77;;
3769;SDS011;1900;48.890;9.190;2023-05-29T05:22:15;8.70;;;5.03;;
3769;SDS011;1900;48.890;9.190;2023-05-29T05:24:41;6.80;;;5.00;;
3769;SDS011;1900;48.890;9.190;2023-05-29T05:27:06;12.00;;;4.53;;
3769;SDS011;1900;48.890;9.190;2023-05-29T05:29:33;11.70;;;5.03;;
3769;SDS011;1900;48.890;9.190;2023-05-29T05:31:59;8.83;;;4.67;;
3769;SDS011;1900;48.890;9.190;2023-05-29T05:34:25;7.10;;;5.20;;
3769;SDS011;1900;48.890;9.190;2023-05-29T05:36:51;9.20;;;5.07;;
3769;SDS011;1900;48.890;9.190;2023-05-29T05:39:16;11.70;;;4.63;;
3769;SDS011;1900;48.890;9.190;2023-05-29T05:41:48;7.27;;;4.53;;
3769;SDS011;1900;48.890;9.190;2023-05-29T05:44:22;11.70;;;5.33;;
3769;SDS011;1900;48.890;9.190;2023-05-29T05:46:57;9.60;;;5.37;;
3769;SDS011;1900;48.890;9.190;2023-05-29T05:49:24;7.50;;;4.53;;
3769;SDS011;1900;48.890;9.190;2023-05-29T05:51:50;8.00;;;5.00;;
3769;SDS011;1900;48.890;9.190;2023-05-29T05:54:16;12.17;;;6.10;;
3769;SDS011;1900;48.890;9.190;2023-05-29T05:56:41;12.77;;;4.93;;
3769;SDS011;1900;48.890;9.190;2023-05-29T05:59:12;9.73;;;5.37;;
3769;SDS011;1900;48.890;9.190;2023-05-29T06:01:38;9.07;;;5.23;;
3769;SDS011;1900;48.890;9.190;2023-05-29T06:04:04;12.23;;;5.83;;
3769;SDS011;1900;48.890;9.190;2023-05-29T06:06:31;6.20;;;4.50;;
3769;SDS011;1900;48.890;9.190;2023-05-29T06:08:59;9.20;;;5.13;;
3769;SDS011;1900;48.890;9.190;2023-05-29T06:11:26;8.10;;;4.27;;
3769;SDS011;1900;48.890;9.190;2023-05-29T06:13:53;9.40;;;4.50;;
3769;SDS011;1900;48.890;9.190;2023-05-29T06:16:22;7.13;;;4.70;;
3769;SDS011;1900;48.890;9.190;2023-05-29T06:18:48;10.37;;;5.20;;
3769;SDS011;1900;48.890;9.190;2023-05-29T06:21:17;10.30;;;5.30;;
3769;SDS011;1900;48.890;9.190;2023-05-29T06:23:48;8.87;;;5.10;;
3769;SDS011;1900;48.890;9.190;2023-05-29T06:26:14;10.07;;;5.30;;
3769;SDS011;1900;48.890;9.190;2023-05-29T06:28:41;11.33;;;4.80;;
3769;SDS011;1900;48.890;9.190;2023-05-29T06:31:09;7.50;;;5.50;;
3769;SDS011;1900;48.890;9.190;2023-05-29T06:33:35;9.57;;;4.60;;
3769;SDS011;1900;48.890;9.190;2023-05-29T06:36:04;9.33;;;5.10;;
3769;SDS011;1900;48.890;9.190;2023-05-29T06:38:30;9.23;;;4.57;;
3769;SDS011;1900;48.890;9.190;2023-05-29T06:40:59;8.37;;;5.67;;
3769;SDS011;1900;48.890;9.190;2023-05-29T06:43:28;7.17;;;4.80;;
3769;SDS011;1900;48.890;9.190;2023-05-29T06:45:56;8.23;;;5.00;;
3769;SDS011;1900;48.890;9.190;2023-05-29T06:48:22;10.70;;;5.87;;
3769;SDS011;1900;48.890;9.190;2023-05-29T06:50:48;6.47;;;4.30;;
3769;SDS011;1900;48.890;9.190;2023-05-29T06:53:33;8.60;;;4.23;;
3769;SDS011;1900;48.890;9.190;2023-05-29T06:56:01;8.67;;;5.20;;
3769;SDS011;1900;48.890;9.190;2023-05-29T06:58:27;13.33;;;4.93;;
3769;SDS011;1900;48.890;9.190;2023-05-29T07:00:53;6.37;;;4.60;;
3769;SDS011;1900;48.890;9.190;2023-05-29T07:03:25;10.67;;;5.00;;
3769;SDS011;1900;48.890;9.190;2023-05-29T07:05:52;8.83;;;4.23;;
3769;SDS011;1900;48.890;9.190;2023-05-29T07:08:19;6.47;;;5.10;;
3769;SDS011;1900;48.890;9.190;2023-05-29T07:10:44;10.53;;;4.93;;
3769;SDS011;1900;48.890;9.190;2023-05-29T07:13:15;6.93;;;4.57;;
3769;SDS011;1900;48.890;9.190;2023-05-29T07:15:41;6.90;;;4.50;;
3769;SDS011;1900;48.890;9.190;2023-05-29T07:18:08;11.17;;;5.67;;
3769;SDS011;1900;48.890;9.190;2023-05-29T07:20:34;9.60;;;4.67;;
3769;SDS011;1900;48.890;9.190;2023-05-29T07:23:01;8.63;;;5.13;;
3769;SDS011;1900;48.890;9.190;2023-05-29T07:25:27;12.77;;;5.67;;
3769;SDS011;1900;48.890;9.190;2023-05-29T07:27:53;25.73;;;6.40;;
3769;SDS011;1900;48.890;9.190;2023-05-29T07:30:19;5.73;;;3.73;;
3769;SDS011;1900;48.890;9.190;2023-05-29T07:32:48;6.23;;;4.00;;
3769;SDS011;1900;48.890;9.190;2023-05-29T07:35:15;8.90;;;4.80;;
3769;SDS011;1900;48.890;9.190;2023-05-29T07:37:41;5.63;;;4.10;;
3769;SDS011;1900;48.890;9.190;2023-05-29T07:40:09;8.13;;;4.43;;
3769;SDS011;1900;48.890;9.190;2023-05-29T07:42:58;12.80;;;5.50;;
3769;SDS011;1900;48.890;9.190;2023-05-29T07:45:28;7.43;;;4.40;;
3769;SDS011;1900;48.890;9.190;2023-05-29T07:47:55;6.40;;;4.60;;
3769;SDS011;1900;48.890;9.190;2023-05-29T07:50:21;7.13;;;4.57;;
3769;SDS011;1900;48.890;9.190;2023-05-29T07:52:46;9.10;;;4.30;;
3769;SDS011;1900;48.890;9.190;2023-05-29T07:55:12;5.77;;;4.17;;
3769;SDS011;1900;48.890;9.190;2023-05-29T07:57:38;13.73;;;5.20;;
3769;SDS011;1900;48.890;9.190;2023-05-29T08:00:05;12.30;;;4.47;;
3769;SDS011;1900;48.890;9.190;2023-05-29T08:02:44;7.90;;;4.77;;
3769;SDS011;1900;48.890;9.190;2023-05-29T08:05:29;13.60;;;5.43;;
3769;SDS011;1900;48.890;9.190;2023-05-29T08:07:57;10.93;;;4.47;;
3769;SDS011;1900;48.890;9.190;2023-05-29T08:10:24;12.13;;;4.33;;
3769;SDS011;1900;48.890;9.190;2023-05-29T08:12:50;8.93;;;4.40;;
3769;SDS011;1900;48.890;9.190;2023-05-29T08:15:17;8.40;;;4.43;;
3769;SDS011;1900;48.890;9.190;2023-05-29T08:17:43;10.60;;;5.10;;
3769;SDS011;1900;48.890;9.190;2023-05-29T08:20:09;7.30;;;4.13;;
3769;SDS011;1900;48.890;9.190;2023-05-29T08:22:35;7.10;;;4.97;;
3769;SDS011;1900;48.890;9.190;2023-05-29T08:25:01;10.60;;;4.70;;
3769;SDS011;1900;48.890;9.190;2023-05-29T08:27:27;8.30;;;4.70;;
3769;SDS011;1900;48.890;9.190;2023-05-29T08:29:52;11.10;;;4.20;;
3769;SDS011;1900;48.890;9.190;2023-05-29T08:32:19;7.30;;;4.87;;
3769;SDS011;1900;48.890;9.190;2023-05-29T08:34:46;9.83;;;4.50;;
3769;SDS011;1900;48.890;9.190;2023-05-29T08:37:14;8.07;;;4.50;;
3769;SDS011;1900;48.890;9.190;2023-05-29T08:39:41;7.40;;;4.53;;
3769;SDS011;1900;48.890;9.190;2023-05-29T08:42:07;8.00;;;4.30;;
3769;SDS011;1900;48.890;9.190;2023-05-29T08:44:38;9.40;;;5.20;;
3769;SDS011;1900;48.890;9.190;2023-05-29T08:47:05;6.37;;;4.60;;
3769;SDS011;1900;48.890;9.190;2023-05-29T08:49:41;10.63;;;4.27;;
3769;SDS011;1900;48.890;9.190;2023-05-29T08:52:19;8.10;;;4.10;;
3769;SDS011;1900;48.890;9.190;2023-05-29T08:54:50;7.00;;;5.00;;
3769;SDS011;1900;48.890;9.190;2023-05-29T08:57:17;6.87;;;4.70;;
3769;SDS011;1900;48.890;9.190;2023-05-29T08:59:45;7.83;;;4.27;;
3769;SDS011;1900;48.890;9.190;2023-05-29T09:02:16;6.13;;;4.23;;
3769;SDS011;1900;48.890;9.190;2023-05-29T09:04:42;8.67;;;4.70;;
3769;SDS011;1900;48.890;9.190;2023-05-29T09:07:13;7.73;;;4.40;;
3769;SDS011;1900;48.890;9.190;2023-05-29T09:09:44;7.90;;;4.60;;
3769;SDS011;1900;48.890;9.190;2023-05-29T09:12:13;12.43;;;4.20;;
3769;SDS011;1900;48.890;9.190;2023-05-29T09:14:42;6.00;;;4.37;;
3769;SDS011;1900;48.890;9.190;2023-05-29T09:17:10;7.63;;;3.90;;
3769;SDS011;1900;48.890;9.190;2023-05-29T09:19:37;7.37;;;4.80;;
3769;SDS011;1900;48.890;9.190;2023-05-29T09:22:06;13.60;;;4.67;;
3769;SDS011;1900;48.890;9.190;2023-05-29T09:24:33;7.70;;;4.30;;
3769;SDS011;1900;48.890;9.190;2023-05-29T09:27:01;7.07;;;4.13;;
3769;SDS011;1900;48.890;9.190;2023-05-29T09:29:32;7.40;;;4.40;;
3769;SDS011;1900;48.890;9.190;2023-05-29T09:32:08;6.43;;;4.80;;
3769;SDS011;1900;48.890;9.190;2023-05-29T09:34:41;6.53;;;4.10;;
3769;SDS011;1900;48.890;9.190;2023-05-29T09:37:07;7.87;;;4.93;;
3769;SDS011;1900;48.890;9.190;2023-05-29T09:39:44;6.67;;;4.33;;
3769;SDS011;1900;48.890;9.190;2023-05-29T09:42:12;6.40;;;4.20;;
3769;SDS011;1900;48.890;9.190;2023-05-29T09:44:42;5.70;;;4.17;;
3769;SDS011;1900;48.890;9.190;2023-05-29T09:47:09;6.83;;;4.20;;
3769;SDS011;1900;48.890;9.190;2023-05-29T09:49:41;5.40;;;3.97;;
3769;SDS011;1900;48.890;9.190;2023-05-29T09:52:11;10.13;;;5.00;;
3769;SDS011;1900;48.890;9.190;2023-05-29T09:54:41;8.13;;;4.40;;
3769;SDS011;1900;48.890;9.190;2023-05-29T09:57:12;5.20;;;3.77;;
3769;SDS011;1900;48.890;9.190;2023-05-29T09:59:40;10.00;;;4.43;;
3769;SDS011;1900;48.890;9.190;2023-05-29T10:02:09;8.90;;;5.07;;
3769;SDS011;1900;48.890;9.190;2023-05-29T10:04:37;9.17;;;5.13;;
3769;SDS011;1900;48.890;9.190;2023-05-29T10:07:12;8.30;;;4.47;;
3769;SDS011;1900;48.890;9.190;2023-05-29T10:09:42;8.83;;;4.17;;
3769;SDS011;1900;48.890;9.190;2023-05-29T10:12:13;5.70;;;3.90;;
3769;SDS011;1900;48.890;9.190;2023-05-29T10:14:49;8.60;;;4.50;;
3769;SDS011;1900;48.890;9.190;2023-05-29T10:17:15;4.80;;;3.53;;
3769;SDS011;1900;48.890;9.190;2023-05-29T10:19:47;10.20;;;4.67;;
3769;SDS011;1900;48.890;9.190;2023-05-29T10:22:15;8.87;;;4.43;;
3769;SDS011;1900;48.890;9.190;2023-05-29T10:24:43;9.80;;;4.53;;
3769;SDS011;1900;48.890;9.190;2023-05-29T10:27:13;6.10;;;3.90;;
3769;SDS011;1900;48.890;9.190;2023-05-29T10:29:43;8.03;;;4.13;;
3769;SDS011;1900;48.890;9.190;2023-05-29T10:37:54;8.03;;;3.93;;
3769;SDS011;1900;48.890;9.190;2023-05-29T10:40:24;8.63;;;4.63;;
3769;SDS011;1900;48.890;9.190;2023-05-29T10:42:51;8.83;;;4.43;;
3769;SDS011;1900;48.890;9.190;2023-05-29T10:50:35;6.57;;;4.33;;
3769;SDS011;1900;48.890;9.190;2023-05-29T10:53:15;6.17;;;3.83;;
3769;SDS011;1900;48.890;9.190;2023-05-29T10:55:42;8.07;;;4.20;;
3769;SDS011;1900;48.890;9.190;2023-05-29T10:58:13;9.83;;;4.70;;
3769;SDS011;1900;48.890;9.190;2023-05-29T11:00:46;6.63;;;3.90;;
3769;SDS011;1900;48.890;9.190;2023-05-29T11:03:15;8.73;;;4.07;;
3769;SDS011;1900;48.890;9.190;2023-05-29T11:11:12;7.57;;;4.13;;
3769;SDS011;1900;48.890;9.190;2023-05-29T11:13:54;5.43;;;3.77;;
3769;SDS011;1900;48.890;9.190;2023-05-29T11:18:53;6.80;;;3.83;;
3769;SDS011;1900;48.890;9.190;2023-05-29T11:24:21;7.13;;;3.47;;
3769;SDS011;1900;48.890;9.190;2023-05-29T11:26:51;5.93;;;3.33;;
3769;SDS011;1900;48.890;9.190;2023-05-29T11:29:22;8.07;;;3.97;;
3769;SDS011;1900;48.890;9.190;2023-05-29T11:31:53;5.43;;;4.13;;
3769;SDS011;1900;48.890;9.190;2023-05-29T11:34:22;4.97;;;3.30;;
3769;SDS011;1900;48.890;9.190;2023-05-29T11:36:52;4.87;;;3.33;;
3769;SDS011;1900;48.890;9.190;2023-05-29T11:39:18;8.60;;;3.70;;
3769;SDS011;1900;48.890;9.190;2023-05-29T11:41:44;5.57;;;3.23;;
3769;SDS011;1900;48.890;9.190;2023-05-29T11:44:13;5.90;;;3.50;;
3769;SDS011;1900;48.890;9.190;2023-05-29T11:46:39;4.40;;;3.30;;
3769;SDS011;1900;48.890;9.190;2023-05-29T11:49:05;6.93;;;4.13;;
3769;SDS011;1900;48.890;9.190;2023-05-29T11:51:30;3.50;;;3.20;;
3769;SDS011;1900;48.890;9.190;2023-05-29T11:53:57;6.60;;;3.40;;
3769;SDS011;1900;48.890;9.190;2023-05-29T11:56:27;4.47;;;3.80;;
3769;SDS011;1900;48.890;9.190;2023-05-29T11:58:58;6.20;;;3.57;;
3769;SDS011;1900;48.890;9.190;2023-05-29T12:01:25;4.33;;;3.37;;
3769;SDS011;1900;48.890;9.190;2023-05-29T12:03:52;5.20;;;3.07;;
3769;SDS011;1900;48.890;9.190;2023-05-29T12:06:33;5.80;;;3.47;;
3769;SDS011;1900;48.890;9.190;2023-05-29T12:09:03;4.07;;;3.50;;
3769;SDS011;1900;48.890;9.190;2023-05-29T12:11:30;4.77;;;3.70;;
3769;SDS011;1900;48.890;9.190;2023-05-29T12:13:59;4.90;;;3.03;;
3769;SDS011;1900;48.890;9.190;2023-05-29T12:16:30;4.00;;;3.10;;
3769;SDS011;1900;48.890;9.190;2023-05-29T12:18:58;3.80;;;3.20;;
3769;SDS011;1900;48.890;9.190;2023-05-29T12:21:26;3.80;;;3.37;;
3769;SDS011;1900;48.890;9.190;2023-05-29T12:23:53;5.57;;;3.17;;
3769;SDS011;1900;48.890;9.190;2023-05-29T12:26:23;5.73;;;3.23;;
3769;SDS011;1900;48.890;9.190;2023-05-29T12:28:50;4.53;;;3.73;;
3769;SDS011;1900;48.890;9.190;2023-05-29T12:31:26;3.97;;;3.03;;
3769;SDS011;1900;48.890;9.190;2023-05-29T12:33:53;7.27;;;3.43;;
3769;SDS011;1900;48.890;9.190;2023-05-29T12:36:19;7.77;;;3.40;;
3769;SDS011;1900;48.890;9.190;2023-05-29T12:38:53;10.70;;;3.33;;
3769;SDS011;1900;48.890;9.190;2023-05-29T12:41:25;6.60;;;3.63;;
3769;SDS011;1900;48.890;9.190;2023-05-29T12:43:56;5.37;;;3.33;;
3769;SDS011;1900;48.890;9.190;2023-05-29T12:46:23;3.40;;;3.10;;
3769;SDS011;1900;48.890;9.190;2023-05-29T12:48:49;4.80;;;3.13;;
3769;SDS011;1900;48.890;9.190;2023-05-29T12:51:26;5.40;;;4.10;;
3769;SDS011;1900;48.890;9.190;2023-05-29T12:53:56;4.13;;;3.07;;
3769;SDS011;1900;48.890;9.190;2023-05-29T12:56:26;4.37;;;3.37;;
3769;SDS011;1900;48.890;9.190;2023-05-29T12:58:52;4.00;;;2.70;;
3769;SDS011;1900;48.890;9.190;2023-05-29T13:01:20;8.33;;;3.60;;
3769;SDS011;1900;48.890;9.190;2023-05-29T13:03:47;7.10;;;2.97;;
3769;SDS011;1900;48.890;9.190;2023-05-29T13:06:12;3.50;;;3.20;;
3769;SDS011;1900;48.890;9.190;2023-05-29T13:08:38;4.63;;;3.17;;
3769;SDS011;1900;48.890;9.190;2023-05-29T13:11:04;5.10;;;3.57;;
3769;SDS011;1900;48.890;9.190;2023-05-29T13:13:29;4.60;;;3.13;;
3769;SDS011;1900;48.890;9.190;2023-05-29T13:15:55;3.70;;;3.00;;
3769;SDS011;1900;48.890;9.190;2023-05-29T13:18:21;4.60;;;3.03;;
3769;SDS011;1900;48.890;9.190;2023-05-29T13:20:47;6.00;;;3.77;;
3769;SDS011;1900;48.890;9.190;2023-05-29T13:23:12;6.00;;;3.90;;
3769;SDS011;1900;48.890;9.190;2023-05-29T13:25:38;3.60;;;2.87;;
3769;SDS011;1900;48.890;9.190;2023-05-29T13:28:04;3.25;;;2.90;;
3769;SDS011;1900;48.890;9.190;2023-05-29T13:30:29;3.92;;;3.00;;
3769;SDS011;1900;48.890;9.190;2023-05-29T13:32:55;7.93;;;3.53;;
3769;SDS011;1900;48.890;9.190;2023-05-29T13:35:21;8.00;;;3.30;;
3769;SDS011;1900;48.890;9.190;2023-05-29T13:37:46;4.15;;;2.72;;
3769;SDS011;1900;48.890;9.190;2023-05-29T13:40:12;4.32;;;3.28;;
3769;SDS011;1900;48.890;9.190;2023-05-29T13:42:39;4.78;;;3.05;;
3769;SDS011;1900;48.890;9.190;2023-05-29T13:45:07;5.80;;;3.05;;
3769;SDS011;1900;48.890;9.190;2023-05-29T13:47:34;5.70;;;3.42;;
3769;SDS011;1900;48.890;9.190;2023-05-29T13:50:00;3.47;;;3.17;;
3769;SDS011;1900;48.890;9.190;2023-05-29T13:52:26;4.28;;;3.17;;
3769;SDS011;1900;48.890;9.190;2023-05-29T13:54:52;4.13;;;3.03;;
3769;SDS011;1900;48.890;9.190;2023-05-29T13:57:18;4.55;;;2.88;;
3769;SDS011;1900;48.890;9.190;2023-05-29T13:59:43;4.57;;;2.47;;
3769;SDS011;1900;48.890;9.190;2023-05-29T14:02:09;6.35;;;3.80;;
3769;SDS011;1900;48.890;9.190;2023-05-29T14:04:36;2.78;;;2.58;;
3769;SDS011;1900;48.890;9.190;2023-05-29T14:07:03;4.53;;;3.10;;
3769;SDS011;1900;48.890;9.190;2023-05-29T14:09:29;4.45;;;3.15;;
3769;SDS011;1900;48.890;9.190;2023-05-29T14:11:55;6.10;;;2.83;;
3769;SDS011;1900;48.890;9.190;2023-05-29T14:14:22;5.32;;;3.00;;
3769;SDS011;1900;48.890;9.190;2023-05-29T14:16:48;3.20;;;2.90;;
3769;SDS011;1900;48.890;9.190;2023-05-29T14:19:15;5.38;;;3.33;;
3769;SDS011;1900;48.890;9.190;2023-05-29T14:21:40;3.45;;;3.00;;
3769;SDS011;1900;48.890;9.190;2023-05-29T14:24:06;5.60;;;3.72;;
3769;SDS011;1900;48.890;9.190;2023-05-29T14:26:32;5.82;;;3.05;;
3769;SDS011;1900;48.890;9.190;2023-05-29T14:28:58;4.30;;;3.03;;
3769;SDS011;1900;48.890;9.190;2023-05-29T14:31:24;9.15;;;3.25;;
3769;SDS011;1900;48.890;9.190;2023-05-29T14:33:49;4.15;;;3.30;;
3769;SDS011;1900;48.890;9.190;2023-05-29T14:36:15;3.50;;;3.13;;
3769;SDS011;1900;48.890;9.190;2023-05-29T14:38:42;3.10;;;2.65;;
3769;SDS011;1900;48.890;9.190;2023-05-29T14:41:09;5.18;;;3.05;;
3769;SDS011;1900;48.890;9.190;2023-05-29T14:43:37;3.72;;;3.25;;
3769;SDS011;1900;48.890;9.190;2023-05-29T14:46:03;3.03;;;2.42;;
3769;SDS011;1900;48.890;9.190;2023-05-29T14:48:29;4.75;;;2.80;;
3769;SDS011;1900;48.890;9.190;2023-05-29T14:50:55;3.90;;;2.95;;
3769;SDS011;1900;48.890;9.190;2023-05-29T14:53:21;7.00;;;3.13;;
3769;SDS011;1900;48.890;9.190;2023-05-29T14:55:48;3.80;;;3.22;;
3769;SDS011;1900;48.890;9.190;2023-05-29T14:58:14;4.70;;;3.13;;
3769;SDS011;1900;48.890;9.190;2023-05-29T15:00:39;3.92;;;2.83;;
3769;SDS011;1900;48.890;9.190;2023-05-29T15:03:05;4.00;;;2.70;;
3769;SDS011;1900;48.890;9.190;2023-05-29T15:05:31;5.13;;;3.20;;
3769;SDS011;1900;48.890;9.190;2023-05-29T15:07:57;4.22;;;3.28;;
3769;SDS011;1900;48.890;9.190;2023-05-29T15:10:26;4.05;;;2.58;;
3769;SDS011;1900;48.890;9.190;2023-05-29T15:12:54;10.02;;;3.10;;
3769;SDS011;1900;48.890;9.190;2023-05-29T15:15:25;3.90;;;2.80;;
3769;SDS011;1900;48.890;9.190;2023-05-29T15:17:54;3.05;;;2.75;;
3769;SDS011;1900;48.890;9.190;2023-05-29T15:20:23;5.03;;;3.05;;
3769;SDS011;1900;48.890;9.190;2023-05-29T15:22:50;5.03;;;2.83;;
3769;SDS011;1900;48.890;9.190;2023-05-29T15:25:16;3.93;;;2.73;;
3769;SDS011;1900;48.890;9.190;2023-05-29T15:27:42;3.13;;;2.70;;
3769;SDS011;1900;48.890;9.190;2023-05-29T15:30:09;6.32;;;3.05;;
3769;SDS011;1900;48.890;9.190;2023-05-29T15:32:38;5.40;;;3.83;;
3769;SDS011;1900;48.890;9.190;2023-05-29T15:35:06;6.20;;;3.33;;
3769;SDS011;1900;48.890;9.190;2023-05-29T15:37:35;4.32;;;3.42;;
3769;SDS011;1900;48.890;9.190;2023-05-29T15:40:02;5.00;;;2.80;;
3769;SDS011;1900;48.890;9.190;2023-05-29T15:42:33;3.53;;;3.20;;
3769;SDS011;1900;48.890;9.190;2023-05-29T15:44:59;3.30;;;2.70;;
3769;SDS011;1900;48.890;9.190;2023-05-29T15:47:25;2.60;;;2.40;;
3769;SDS011;1900;48.890;9.190;2023-05-29T15:49:51;4.53;;;3.07;;
3769;SDS011;1900;48.890;9.190;2023-05-29T15:52:17;2.97;;;2.63;;